East Maine, NY

5:13 PM EDT on July 25, 2017 (GMT -0400)
Farm to Market Road | | Change Station

Elev 1411 ft 42.17 °N, 76.02 °W | Updated 27 seconds ago

Overcast
Overcast
65.5 °F
Feels Like 65.5 °F
N
1.7
Wind Variable Wind from East

Today
High -- | Low -- °F
--% Chance of Precip.
Yesterday
High -- | Low -- °F
Precip. -- in
Pressure 30.17 in
Visibility 10.0 miles
Clouds Scattered Clouds 1300 ft
Mostly Cloudy 2000 ft
Overcast 4300 ft
Dew Point 62 °F
Humidity 87%
Rainfall 0.04 in
Snow Depth Not available.
5:50 AM 8:30 PM
Waxing Crescent, 8% visible
METAR KBGM 252053Z 33009KT 10SM SCT013 BKN020 OVC043 17/15 A3018 RMK AO2 RAE10 SLP215 P0000 60002 T01670150 51010
Pressure 30.17 in
Visibility 10.0 miles
Clouds Scattered Clouds 1300 ft
Mostly Cloudy 2000 ft
Overcast 4300 ft
Dew Point 62 °F
Humidity 87%
Rainfall 0.04 in
Snow Depth Not available.
5:50 AM 8:30 PM
Waxing Crescent, 8% visible
METAR KBGM 252053Z 33009KT 10SM SCT013 BKN020 OVC043 17/15 A3018 RMK AO2 RAE10 SLP215 P0000 60002 T01670150 51010

Get Severe Weather Alerts

Thanks for signing up!

Be on the lookout for a verification email in your inbox.

You'll start receiving the daily forecast at 6 AM.

×

10-Day Weather Forecast

Almanac

Astronomy

Jul. 25, 2017 Rise Set
Actual Time
Civil Twilight
Nautical Twilight
Astronomical Twilight
Moon
Length of Visible Light
Length of Day
Tomorrow will be .
, % of the Moon is Illuminated

Today's Extremes

State Highs State Lows

Community

WunderPhotos

Category 6

Welcome to Category 6. This is the collective home for Weather Underground's featured writeups by Dr. Jeff Masters (right), Bob Henson (left), Chris Burt, and other regular contributors.

Nearby

Air Quality

  Air Quality AQ Index Pollutant
Not available.

Snow Depth

Station Depth Elevation

Earthquake Activity

City Distance Mag. Time & Date
Minimum magnitude displayed is 2.5.

Coastal Water Temperatures

Place Temperature

Stations

Nearby Weather Stations

Station Location Temp. Windchill Dew Point Humidity Wind Precip. Elev Updated Type
                   

Watches & Warnings

There are currently no watches in effect.